Terminal Aerodrome Forecast
Issued by NWS

Home | Current Version | Previous Version | Text Only | Print | Product List | Glossary On
Versions: 1 2 3 4 5 6 7 8 9 10 11 12 13 14 15 16 17 18 19
000
FTUS43 KDMX 250222 AAC
TAFOTM
TAF AMD
KOTM 250222Z 2502/2524 11007KT 2SM -RA BKN009 BKN040
     FM250600 03013G19KT 5SM -SHRA OVC015
     FM251200 03013G21KT 2SM RA OVC005
     FM251600 03012G18KT 3SM RA OVC007
     FM251800 03011KT 5SM BR VCSH OVC007=

USA.gov is the U.S. government's official web portal to all federal, state and local government web resources and services.